CSN6160 ZPPP-ZBAD
Flight info
| Callsign | CSN6160 |
|---|---|
| Flight time | N/A |
| Altitude | 35100 |
| Route | K0878S1070 DCT DADOL W144 IGNAK W179 WFX W233 AGULU W81 APIMI W275 WJC G212 BELAX DCT |
| Aircraft | A321/M-SDE3FGHIRWY/LB1 |
Departure
| Time | 2026-05-01 14:50 |
|---|---|
| Airport | Kunming Changshui International Airport (ZPPP) |
Arrival
| Time | N/A |
|---|---|
| Airport | Beijing Daxing International Airport (ZBAD) |
| Time | Latitude | Longitude | Altitude | Speed | Heading |
|---|---|---|---|---|---|
| 2026-05-01 14:14 | 25.10666 | 102.92999 | 6902 ft | 0 kts | 253° |
| 2026-05-01 14:38 | 25.10669 | 102.93008 | 6902 ft | 4 kts | 252° |
| 2026-05-01 14:38 | 25.10677 | 102.93036 | 6901 ft | 4 kts | 252° |
| 2026-05-01 14:38 | 25.10684 | 102.93064 | 6902 ft | 4 kts | 258° |
| 2026-05-01 14:39 | 25.10688 | 102.93094 | 6901 ft | 4 kts | 265° |
| 2026-05-01 14:39 | 25.10689 | 102.93108 | 6901 ft | 1 kts | 265° |
| 2026-05-01 14:39 | 25.10689 | 102.93110 | 6901 ft | 0 kts | 265° |
| 2026-05-01 14:43 | 25.10690 | 102.93105 | 6901 ft | 2 kts | 280° |
| 2026-05-01 14:44 | 25.10718 | 102.93080 | 6902 ft | 10 kts | 340° |
| 2026-05-01 14:44 | 25.10863 | 102.92985 | 6903 ft | 14 kts | 307° |
| 2026-05-01 14:44 | 25.10928 | 102.92897 | 6921 ft | 15 kts | 307° |
| 2026-05-01 14:45 | 25.10998 | 102.92800 | 6919 ft | 16 kts | 309° |
| 2026-05-01 14:45 | 25.11138 | 102.92738 | 6908 ft | 13 kts | 36° |
| 2026-05-01 14:45 | 25.11236 | 102.92819 | 6914 ft | 21 kts | 37° |
| 2026-05-01 14:46 | 25.11362 | 102.92929 | 6915 ft | 24 kts | 39° |
| 2026-05-01 14:46 | 25.11624 | 102.93156 | 6902 ft | 25 kts | 38° |
| 2026-05-01 14:46 | 25.11766 | 102.93280 | 6902 ft | 27 kts | 38° |
| 2026-05-01 14:47 | 25.11915 | 102.93410 | 6900 ft | 28 kts | 38° |
| 2026-05-01 14:47 | 25.12072 | 102.93546 | 6900 ft | 29 kts | 38° |
| 2026-05-01 14:47 | 25.12233 | 102.93686 | 6900 ft | 27 kts | 37° |
| 2026-05-01 14:48 | 25.12529 | 102.93944 | 6898 ft | 28 kts | 37° |
| 2026-05-01 14:48 | 25.12688 | 102.94081 | 6897 ft | 29 kts | 39° |
| 2026-05-01 14:48 | 25.12928 | 102.94276 | 6896 ft | 16 kts | 4° |
| 2026-05-01 14:49 | 25.12992 | 102.94104 | 6894 ft | 14 kts | 215° |
| 2026-05-01 14:49 | 25.12460 | 102.93641 | 6900 ft | 107 kts | 218° |
| 2026-05-01 14:50 | 25.11092 | 102.92452 | 6919 ft | 187 kts | 218° |
| 2026-05-01 14:50 | 25.08976 | 102.89928 | 8014 ft | 193 kts | 234° |
| 2026-05-01 14:51 | 25.08210 | 102.88707 | 8516 ft | 197 kts | 236° |
| 2026-05-01 14:51 | 25.06566 | 102.86071 | 9000 ft | 217 kts | 233° |
| 2026-05-01 14:52 | 25.04684 | 102.83286 | 9388 ft | 235 kts | 233° |
| 2026-05-01 14:52 | 25.03680 | 102.81820 | 9541 ft | 245 kts | 232° |
| 2026-05-01 14:52 | 25.01474 | 102.78690 | 10128 ft | 265 kts | 232° |
| 2026-05-01 14:53 | 25.00348 | 102.77078 | 10690 ft | 266 kts | 233° |
| 2026-05-01 14:53 | 24.99222 | 102.75458 | 11276 ft | 267 kts | 233° |
| 2026-05-01 14:53 | 24.98103 | 102.73829 | 11872 ft | 266 kts | 236° |
| 2026-05-01 14:53 | 24.97394 | 102.71976 | 12407 ft | 267 kts | 266° |
| 2026-05-01 14:54 | 24.97743 | 102.69975 | 12932 ft | 272 kts | 294° |
| 2026-05-01 14:54 | 24.98659 | 102.68137 | 13444 ft | 276 kts | 298° |
| 2026-05-01 14:54 | 24.99680 | 102.66340 | 13998 ft | 278 kts | 300° |
| 2026-05-01 14:54 | 25.00743 | 102.64546 | 14531 ft | 280 kts | 300° |
| 2026-05-01 14:55 | 25.01814 | 102.62743 | 15052 ft | 283 kts | 300° |
| 2026-05-01 14:55 | 25.02901 | 102.60900 | 15327 ft | 295 kts | 300° |
| 2026-05-01 14:55 | 25.04052 | 102.58954 | 15451 ft | 311 kts | 300° |
| 2026-05-01 14:55 | 25.05249 | 102.56935 | 15580 ft | 326 kts | 301° |
| 2026-05-01 14:56 | 25.06635 | 102.54881 | 15705 ft | 344 kts | 313° |
| 2026-05-01 14:56 | 25.08637 | 102.53325 | 15833 ft | 364 kts | 333° |
| 2026-05-01 14:56 | 25.11141 | 102.52620 | 15960 ft | 384 kts | 354° |
| 2026-05-01 14:56 | 25.13868 | 102.52853 | 16093 ft | 401 kts | 5° |
| 2026-05-01 14:57 | 25.16679 | 102.53284 | 16204 ft | 415 kts | 6° |
| 2026-05-01 14:57 | 25.22577 | 102.54232 | 16480 ft | 438 kts | 6° |
| 2026-05-01 14:57 | 25.25618 | 102.54721 | 16770 ft | 444 kts | 6° |
| 2026-05-01 14:58 | 25.28685 | 102.55215 | 17161 ft | 447 kts | 6° |
| 2026-05-01 14:58 | 25.31773 | 102.55709 | 17549 ft | 450 kts | 6° |
| 2026-05-01 14:58 | 25.34888 | 102.56201 | 17934 ft | 456 kts | 6° |
| 2026-05-01 14:58 | 25.38026 | 102.56696 | 18327 ft | 456 kts | 5° |
| 2026-05-01 14:59 | 25.41171 | 102.57193 | 18704 ft | 457 kts | 6° |
| 2026-05-01 14:59 | 25.44331 | 102.57694 | 19030 ft | 460 kts | 6° |
| 2026-05-01 14:59 | 25.47508 | 102.58199 | 19383 ft | 463 kts | 6° |
| 2026-05-01 14:59 | 25.50705 | 102.58705 | 19718 ft | 465 kts | 6° |
| 2026-05-01 15:00 | 25.57137 | 102.59717 | 20287 ft | 469 kts | 6° |
| 2026-05-01 15:00 | 25.60381 | 102.60228 | 20581 ft | 471 kts | 6° |
| 2026-05-01 15:00 | 25.63633 | 102.60742 | 20819 ft | 473 kts | 6° |
| 2026-05-01 15:01 | 25.66896 | 102.61260 | 21095 ft | 475 kts | 6° |
| 2026-05-01 15:01 | 25.70171 | 102.61782 | 21392 ft | 476 kts | 6° |
| 2026-05-01 15:01 | 25.73456 | 102.62305 | 21643 ft | 478 kts | 6° |
| 2026-05-01 15:01 | 25.76720 | 102.63064 | 21834 ft | 483 kts | 15° |
| 2026-05-01 15:02 | 25.79870 | 102.64414 | 22023 ft | 488 kts | 24° |
| 2026-05-01 15:02 | 25.81837 | 102.65611 | 22119 ft | 489 kts | 31° |
| 2026-05-01 15:02 | 25.85458 | 102.68699 | 22437 ft | 493 kts | 39° |
| 2026-05-01 15:02 | 25.88082 | 102.71165 | 22609 ft | 494 kts | 39° |
| 2026-05-01 15:03 | 25.90685 | 102.73597 | 22950 ft | 496 kts | 39° |
| 2026-05-01 15:03 | 25.93334 | 102.76064 | 23169 ft | 498 kts | 39° |
| 2026-05-01 15:03 | 25.96029 | 102.78576 | 23372 ft | 500 kts | 39° |
| 2026-05-01 15:03 | 25.98667 | 102.81037 | 23602 ft | 502 kts | 39° |
| 2026-05-01 15:04 | 26.01345 | 102.83536 | 23836 ft | 504 kts | 39° |
| 2026-05-01 15:04 | 26.04034 | 102.86048 | 24065 ft | 505 kts | 39° |
| 2026-05-01 15:04 | 26.06725 | 102.88564 | 24276 ft | 506 kts | 39° |
| 2026-05-01 15:04 | 26.09462 | 102.91135 | 24506 ft | 508 kts | 39° |
| 2026-05-01 15:05 | 26.12119 | 102.93636 | 24781 ft | 507 kts | 39° |
| 2026-05-01 15:05 | 26.14811 | 102.96169 | 25098 ft | 506 kts | 39° |
| 2026-05-01 15:05 | 26.17502 | 102.98698 | 25404 ft | 506 kts | 39° |
| 2026-05-01 15:05 | 26.20192 | 103.01220 | 25709 ft | 505 kts | 39° |
| 2026-05-01 15:06 | 26.22877 | 103.03738 | 26028 ft | 505 kts | 39° |
| 2026-05-01 15:06 | 26.25556 | 103.06255 | 26356 ft | 503 kts | 39° |
| 2026-05-01 15:06 | 26.28229 | 103.08772 | 26661 ft | 503 kts | 39° |
| 2026-05-01 15:06 | 26.30898 | 103.11291 | 26964 ft | 502 kts | 39° |
| 2026-05-01 15:07 | 26.33561 | 103.13807 | 27282 ft | 501 kts | 39° |
| 2026-05-01 15:07 | 26.36218 | 103.16313 | 27609 ft | 501 kts | 39° |
| 2026-05-01 15:07 | 26.38875 | 103.18815 | 27917 ft | 499 kts | 39° |
| 2026-05-01 15:07 | 26.41532 | 103.21317 | 28192 ft | 500 kts | 39° |
| 2026-05-01 15:08 | 26.44191 | 103.23831 | 28451 ft | 501 kts | 39° |
| 2026-05-01 15:08 | 26.46850 | 103.26349 | 28727 ft | 501 kts | 39° |
| 2026-05-01 15:08 | 26.49557 | 103.28779 | 29017 ft | 499 kts | 33° |
| 2026-05-01 15:08 | 26.52519 | 103.30786 | 29300 ft | 496 kts | 25° |
| 2026-05-01 15:09 | 26.55610 | 103.32503 | 29559 ft | 496 kts | 24° |
| 2026-05-01 15:09 | 26.58700 | 103.34218 | 29849 ft | 496 kts | 24° |
| 2026-05-01 15:09 | 26.61787 | 103.35932 | 30141 ft | 495 kts | 24° |
| 2026-05-01 15:09 | 26.64875 | 103.37646 | 30429 ft | 495 kts | 24° |
| 2026-05-01 15:10 | 26.67951 | 103.39356 | 30719 ft | 494 kts | 24° |
| 2026-05-01 15:10 | 26.74094 | 103.42780 | 31321 ft | 492 kts | 24° |
| 2026-05-01 15:10 | 26.77157 | 103.44492 | 31616 ft | 491 kts | 24° |
| 2026-05-01 15:11 | 26.80209 | 103.46198 | 31912 ft | 490 kts | 24° |
| 2026-05-01 15:11 | 26.86295 | 103.49606 | 32505 ft | 488 kts | 25° |
| 2026-05-01 15:11 | 26.89326 | 103.51307 | 32776 ft | 487 kts | 24° |
| 2026-05-01 15:12 | 26.92361 | 103.53008 | 33023 ft | 487 kts | 24° |
| 2026-05-01 15:12 | 26.98407 | 103.56394 | 33532 ft | 485 kts | 24° |
| 2026-05-01 15:12 | 27.01419 | 103.58089 | 33789 ft | 484 kts | 24° |
| 2026-05-01 15:13 | 27.10387 | 103.63128 | 34566 ft | 481 kts | 24° |
| 2026-05-01 15:14 | 27.16370 | 103.66485 | 35028 ft | 480 kts | 24° |
| 2026-05-01 15:14 | 27.25375 | 103.71553 | 35108 ft | 484 kts | 24° |
| 2026-05-01 15:15 | 27.37448 | 103.78253 | 35098 ft | 483 kts | 22° |
| 2026-05-01 15:16 | 27.49717 | 103.84466 | 35095 ft | 484 kts | 22° |
| 2026-05-01 15:18 | 27.64993 | 103.92506 | 35098 ft | 485 kts | 22° |
| 2026-05-01 15:19 | 27.77238 | 103.98929 | 35096 ft | 486 kts | 22° |
| 2026-05-01 15:19 | 27.86441 | 104.03773 | 35084 ft | 486 kts | 22° |
| 2026-05-01 15:20 | 27.95640 | 104.08623 | 35081 ft | 486 kts | 22° |
| 2026-05-01 15:21 | 28.01762 | 104.11863 | 35086 ft | 486 kts | 22° |
| 2026-05-01 15:21 | 28.07885 | 104.15110 | 35076 ft | 486 kts | 22° |
| 2026-05-01 15:22 | 28.17060 | 104.19977 | 35073 ft | 485 kts | 22° |
| 2026-05-01 15:22 | 28.23173 | 104.23224 | 35071 ft | 485 kts | 22° |
| 2026-05-01 15:23 | 28.29243 | 104.26455 | 35068 ft | 485 kts | 22° |
| 2026-05-01 15:23 | 28.35410 | 104.29556 | 35060 ft | 482 kts | 15° |
| 2026-05-01 15:24 | 28.41943 | 104.30824 | 35056 ft | 474 kts | 357° |
| 2026-05-01 15:24 | 28.48511 | 104.30497 | 35055 ft | 472 kts | 354° |
| 2026-05-01 15:25 | 28.55081 | 104.30134 | 35055 ft | 473 kts | 354° |
| 2026-05-01 15:25 | 28.61659 | 104.29784 | 35054 ft | 474 kts | 354° |
| 2026-05-01 15:26 | 28.68242 | 104.29432 | 35057 ft | 474 kts | 354° |
| 2026-05-01 15:26 | 28.74822 | 104.29074 | 35057 ft | 473 kts | 354° |
| 2026-05-01 15:27 | 28.81403 | 104.28706 | 35056 ft | 474 kts | 354° |
| 2026-05-01 15:28 | 28.91275 | 104.28168 | 35054 ft | 473 kts | 354° |
| 2026-05-01 15:28 | 28.97853 | 104.27808 | 35054 ft | 473 kts | 354° |
| 2026-05-01 15:29 | 29.07720 | 104.27263 | 35054 ft | 473 kts | 354° |
| 2026-05-01 15:30 | 29.19773 | 104.26595 | 35047 ft | 473 kts | 354° |
| 2026-05-01 15:31 | 29.32950 | 104.27161 | 35041 ft | 478 kts | 5° |
| 2026-05-01 15:31 | 29.40651 | 104.28475 | 35043 ft | 479 kts | 5° |
| 2026-05-01 15:32 | 29.52720 | 104.30527 | 35041 ft | 479 kts | 5° |
| 2026-05-01 15:34 | 29.72518 | 104.33890 | 35034 ft | 480 kts | 5° |